Miltona, Minnesota
Current Conditions -  °F | °C
As of 11:53 AM on Tuesday 21 Oct 2014 (Local Time) from KAXN Reporting Station
Clear Clear  
Wind Chill: 53°   Ceiling: Unl
Heat Index: 53°   Visibility: 10mi
Dew Point: 41°   Wind: 15mph
Humidity: 64%   Direction: 140°SE
Pressure: 30.11"   Gusts: NA
Location:  46.04°N, 95.29°W
Report Text: KAXN 211653Z AUTO 14013KT 10SM CLR 12/05 A3011 RMK AO2 SLP203 T01170050
Loading
Personal Weather Stations






























Interactive Weather Map New forecast layout! Learn more

10-Day Weather Forecast

Advertisements
Track Severe Weather on mobile